createdAt,value
2022-09-22T00:00:30.610Z,1007.04
2022-09-22T00:01:30.734Z,1007.09
2022-09-22T00:02:30.644Z,1007.04
2022-09-22T00:03:30.580Z,1007.01
2022-09-22T00:04:30.571Z,1007.04
2022-09-22T00:05:30.573Z,1007.01
2022-09-22T00:06:30.588Z,1007.05
2022-09-22T00:07:30.539Z,1007.11
2022-09-22T00:08:30.526Z,1007.09
2022-09-22T00:09:30.523Z,1007.14
2022-09-22T00:10:30.522Z,1007.11
2022-09-22T00:11:30.488Z,1007.12
2022-09-22T00:12:30.501Z,1007.14
2022-09-22T00:13:30.470Z,1007.08
2022-09-22T00:14:30.461Z,1007.07
2022-09-22T00:15:30.448Z,1007.11
2022-09-22T00:16:30.544Z,1007.09
2022-09-22T00:17:30.420Z,1007.08
2022-09-22T00:18:30.447Z,1007.09
2022-09-22T00:19:30.399Z,1007.11
2022-09-22T00:20:30.391Z,1007.06
2022-09-22T00:21:30.378Z,1007.11
2022-09-22T00:22:30.372Z,1007.07
2022-09-22T00:23:30.352Z,1007.10
2022-09-22T00:24:30.361Z,1007.07
2022-09-22T00:25:30.330Z,1007.08
2022-09-22T00:26:30.350Z,1007.10
2022-09-22T00:27:30.309Z,1007.09
2022-09-22T00:28:30.300Z,1007.08
2022-09-22T00:29:30.349Z,1007.08
2022-09-22T00:30:30.279Z,1007.03
2022-09-22T00:31:30.339Z,1007.06
2022-09-22T00:32:30.262Z,1007.06
2022-09-22T00:33:30.241Z,1006.99
2022-09-22T00:34:30.238Z,1007.02
2022-09-22T00:35:30.248Z,1007.03
2022-09-22T00:36:30.211Z,1007.04
2022-09-22T00:37:30.193Z,1007.01
2022-09-22T00:38:30.188Z,1007.01
2022-09-22T00:39:30.170Z,1007.09
2022-09-22T00:40:30.207Z,1007.01
2022-09-22T00:41:30.169Z,1007.00
2022-09-22T00:42:30.139Z,1007.05
2022-09-22T00:43:30.132Z,1007.01
2022-09-22T00:44:30.119Z,1007.02
2022-09-22T00:45:30.100Z,1007.04
2022-09-22T00:46:30.128Z,1007.08
2022-09-22T00:47:30.100Z,1007.01
2022-09-22T00:48:30.077Z,1007.04
2022-09-22T00:49:30.060Z,1007.06
2022-09-22T00:50:30.049Z,1007.06
2022-09-22T00:51:30.038Z,1007.02
2022-09-22T00:52:30.028Z,1006.95
2022-09-22T00:53:30.037Z,1007.00
2022-09-22T00:54:30.009Z,1007.00
2022-09-22T00:55:29.996Z,1006.96
2022-09-22T00:56:29.987Z,1006.93
2022-09-22T00:57:29.969Z,1006.98
2022-09-22T00:58:29.960Z,1006.95
2022-09-22T00:59:29.970Z,1006.93
2022-09-22T01:00:29.962Z,1006.97
2022-09-22T01:01:29.977Z,1006.98
2022-09-22T01:02:29.918Z,1006.92
2022-09-22T01:03:30.243Z,1006.91
2022-09-22T01:04:29.896Z,1006.97
2022-09-22T01:05:29.897Z,1006.95
2022-09-22T01:06:29.870Z,1006.89
2022-09-22T01:07:29.862Z,1006.96
2022-09-22T01:08:29.852Z,1006.95
2022-09-22T01:09:29.837Z,1006.91
2022-09-22T01:10:29.858Z,1006.89
2022-09-22T01:11:29.811Z,1006.93
2022-09-22T01:12:29.810Z,1006.90
2022-09-22T01:13:29.789Z,1006.92
2022-09-22T01:14:29.786Z,1006.85
2022-09-22T01:15:29.770Z,1006.88
2022-09-22T01:16:29.817Z,1006.85
2022-09-22T01:17:29.751Z,1006.90
2022-09-22T01:18:29.736Z,1006.89
2022-09-22T01:19:29.719Z,1006.93
2022-09-22T01:20:29.718Z,1006.85
2022-09-22T01:21:29.698Z,1006.81
2022-09-22T01:22:29.708Z,1006.83
2022-09-22T01:23:29.678Z,1006.91
2022-09-22T01:24:29.668Z,1006.92
2022-09-22T01:25:29.649Z,1006.85
2022-09-22T01:26:29.648Z,1006.84
2022-09-22T01:27:29.658Z,1006.81
2022-09-22T01:28:29.618Z,1006.86
2022-09-22T01:29:29.608Z,1006.80
2022-09-22T01:30:29.598Z,1006.84
2022-09-22T01:31:29.637Z,1006.86
2022-09-22T01:32:29.578Z,1006.83
2022-09-22T01:33:29.578Z,1006.82
2022-09-22T01:34:29.547Z,1006.82
2022-09-22T01:35:29.538Z,1006.78
2022-09-22T01:36:29.527Z,1006.81
2022-09-22T01:37:29.518Z,1006.87
2022-09-22T01:38:29.529Z,1006.79
2022-09-22T01:39:29.495Z,1006.82
2022-09-22T01:40:29.556Z,1006.80
2022-09-22T01:41:29.468Z,1006.81
2022-09-22T01:42:30.228Z,1006.81
2022-09-22T01:43:29.447Z,1006.81
2022-09-22T01:44:29.479Z,1006.83
2022-09-22T01:45:29.427Z,1006.80
2022-09-22T01:46:29.480Z,1006.80
2022-09-22T01:47:29.406Z,1006.75
2022-09-22T01:48:29.398Z,1006.81
2022-09-22T01:49:29.405Z,1006.84
2022-09-22T01:50:29.377Z,1006.83
2022-09-22T01:51:29.372Z,1006.84
2022-09-22T01:52:29.350Z,1006.83
2022-09-22T01:53:29.338Z,1006.84
2022-09-22T01:54:29.328Z,1006.87
2022-09-22T01:55:29.335Z,1006.88
2022-09-22T01:56:29.306Z,1006.86
2022-09-22T01:57:29.295Z,1006.83
2022-09-22T01:58:29.286Z,1006.89
2022-09-22T01:59:29.268Z,1006.85
2022-09-22T02:00:29.258Z,1006.87
2022-09-22T02:01:29.385Z,1006.93
2022-09-22T02:02:29.290Z,1006.89
2022-09-22T02:03:29.217Z,1006.89
2022-09-22T02:04:29.214Z,1006.89
2022-09-22T02:05:29.196Z,1006.91
2022-09-22T02:06:29.187Z,1006.88
2022-09-22T02:07:29.196Z,1006.88
2022-09-22T02:08:29.166Z,1006.84
2022-09-22T02:09:29.147Z,1006.90
2022-09-22T02:10:29.145Z,1006.86
2022-09-22T02:11:29.130Z,1006.87
2022-09-22T02:12:29.126Z,1006.82
2022-09-22T02:13:29.125Z,1006.83
2022-09-22T02:14:29.100Z,1006.83
2022-09-22T02:15:29.091Z,1006.78
2022-09-22T02:16:29.076Z,1006.75
2022-09-22T02:17:34.377Z,1006.79
2022-09-22T02:18:30.074Z,1006.78
2022-09-22T02:19:29.039Z,1006.76
2022-09-22T02:20:29.034Z,1006.71
2022-09-22T02:21:29.014Z,1006.75
2022-09-22T02:22:29.004Z,1006.72
2022-09-22T02:23:28.995Z,1006.73
2022-09-22T02:24:29.007Z,1006.70
2022-09-22T02:25:28.969Z,1006.69
2022-09-22T02:26:28.964Z,1006.66
2022-09-22T02:27:28.945Z,1006.68
2022-09-22T02:28:28.935Z,1006.64
2022-09-22T02:29:28.926Z,1006.68
2022-09-22T02:30:28.944Z,1006.63
2022-09-22T02:31:28.939Z,1006.64
2022-09-22T02:32:28.896Z,1006.61
2022-09-22T02:33:28.875Z,1006.59
2022-09-22T02:34:28.866Z,1006.63
2022-09-22T02:35:28.854Z,1006.65
2022-09-22T02:36:28.863Z,1006.58
2022-09-22T02:37:28.835Z,1006.59
2022-09-22T02:38:28.824Z,1006.56
2022-09-22T02:39:28.805Z,1006.61
2022-09-22T02:40:28.870Z,1006.59
2022-09-22T02:41:28.804Z,1006.56
2022-09-22T02:42:28.774Z,1006.57
2022-09-22T02:43:28.756Z,1006.57
2022-09-22T02:44:28.754Z,1006.55
2022-09-22T02:45:28.734Z,1006.50
2022-09-22T02:46:28.756Z,1006.56
2022-09-22T02:47:28.732Z,1006.61
2022-09-22T02:48:28.704Z,1006.59
2022-09-22T02:49:28.685Z,1006.55
2022-09-22T02:50:28.688Z,1006.53
2022-09-22T02:51:28.675Z,1006.52
2022-09-22T02:52:28.682Z,1006.51
2022-09-22T02:53:28.643Z,1006.49
2022-09-22T02:54:28.635Z,1006.53
2022-09-22T02:55:28.624Z,1006.54
2022-09-22T02:56:28.614Z,1006.55
2022-09-22T02:57:28.595Z,1006.47
2022-09-22T02:58:28.604Z,1006.55
2022-09-22T02:59:28.575Z,1006.50
2022-09-22T03:00:28.563Z,1006.53
2022-09-22T03:01:28.604Z,1006.53
2022-09-22T03:02:28.541Z,1006.50
2022-09-22T03:03:28.543Z,1006.49
2022-09-22T03:04:28.586Z,1006.50
2022-09-22T03:05:28.504Z,1006.51
2022-09-22T03:06:28.494Z,1006.51
2022-09-22T03:07:28.476Z,1006.48
2022-09-22T03:08:28.474Z,1006.49
2022-09-22T03:09:28.483Z,1006.49
2022-09-22T03:10:28.443Z,1006.45
2022-09-22T03:11:28.438Z,1006.44
2022-09-22T03:12:28.422Z,1006.43
2022-09-22T03:13:28.404Z,1006.41
2022-09-22T03:14:28.401Z,1006.43
2022-09-22T03:15:28.464Z,1006.36
2022-09-22T03:16:28.374Z,1006.36
2022-09-22T03:17:28.364Z,1006.35
2022-09-22T03:18:28.351Z,1006.36
2022-09-22T03:19:28.342Z,1006.37
2022-09-22T03:20:28.376Z,1006.40
2022-09-22T03:21:28.335Z,1006.41
2022-09-22T03:22:28.308Z,1006.36
2022-09-22T03:23:28.291Z,1006.40
2022-09-22T03:24:28.273Z,1006.42
2022-09-22T03:25:28.271Z,1006.39
2022-09-22T03:26:28.253Z,1006.38
2022-09-22T03:27:28.262Z,1006.34
2022-09-22T03:28:28.231Z,1006.34
2022-09-22T03:29:28.222Z,1006.33
2022-09-22T03:30:28.202Z,1006.31
2022-09-22T03:31:28.203Z,1006.29
2022-09-22T03:32:28.222Z,1006.25
2022-09-22T03:33:28.175Z,1006.24
2022-09-22T03:34:28.163Z,1006.27
2022-09-22T03:35:28.152Z,1006.28
2022-09-22T03:36:28.132Z,1006.21
2022-09-22T03:37:28.132Z,1006.25
2022-09-22T03:38:28.143Z,1006.23
2022-09-22T03:39:28.117Z,1006.22
2022-09-22T03:40:28.122Z,1006.23
2022-09-22T03:41:28.083Z,1006.27
2022-09-22T03:42:28.064Z,1006.28
2022-09-22T03:43:28.060Z,1006.27
2022-09-22T03:44:28.063Z,1006.30
2022-09-22T03:45:28.034Z,1006.34
2022-09-22T03:46:28.060Z,1006.32
2022-09-22T03:47:28.011Z,1006.30
2022-09-22T03:48:27.991Z,1006.25
2022-09-22T03:49:27.992Z,1006.32
2022-09-22T03:50:27.992Z,1006.23
2022-09-22T03:51:27.964Z,1006.27
2022-09-22T03:52:27.970Z,1006.29
2022-09-22T03:53:27.938Z,1006.31
2022-09-22T03:54:27.924Z,1006.29
2022-09-22T03:55:27.931Z,1006.32
2022-09-22T03:56:27.901Z,1006.34
2022-09-22T03:57:27.891Z,1006.34
2022-09-22T03:58:27.871Z,1006.33
2022-09-22T03:59:27.871Z,1006.32
2022-09-22T04:00:27.851Z,1006.31
2022-09-22T04:01:27.895Z,1006.29
2022-09-22T04:02:27.857Z,1006.29
2022-09-22T04:03:27.821Z,1006.31
2022-09-22T04:04:27.810Z,1006.29
2022-09-22T04:05:27.800Z,1006.31
2022-09-22T04:06:27.811Z,1006.34
2022-09-22T04:07:27.770Z,1006.31
2022-09-22T04:08:27.760Z,1006.25
2022-09-22T04:09:27.750Z,1006.30
2022-09-22T04:10:27.740Z,1006.27
2022-09-22T04:11:27.733Z,1006.26
2022-09-22T04:12:27.730Z,1006.28
2022-09-22T04:13:27.700Z,1006.26
2022-09-22T04:14:27.699Z,1006.27
2022-09-22T04:15:27.680Z,1006.26
2022-09-22T04:16:27.693Z,1006.32
2022-09-22T04:17:27.660Z,1006.27
2022-09-22T04:18:27.661Z,1006.25
2022-09-22T04:19:27.639Z,1006.28
2022-09-22T04:20:27.620Z,1006.24
2022-09-22T04:21:27.609Z,1006.30
2022-09-22T04:22:27.599Z,1006.26
2022-09-22T04:23:27.591Z,1006.28
2022-09-22T04:24:27.599Z,1006.25
2022-09-22T04:25:27.572Z,1006.21
2022-09-22T04:26:27.550Z,1006.19
2022-09-22T04:27:27.541Z,1006.23
2022-09-22T04:28:27.528Z,1006.17
2022-09-22T04:29:27.545Z,1006.17
2022-09-22T04:30:27.572Z,1006.20
2022-09-22T04:31:27.499Z,1006.16
2022-09-22T04:32:27.489Z,1006.19
2022-09-22T04:33:27.487Z,1006.21
2022-09-22T04:34:27.461Z,1006.15
2022-09-22T04:35:27.458Z,1006.19
2022-09-22T04:36:27.458Z,1006.15
2022-09-22T04:37:27.432Z,1006.17
2022-09-22T04:38:27.418Z,1006.14
2022-09-22T04:39:27.412Z,1006.19
2022-09-22T04:40:27.432Z,1006.18
2022-09-22T04:41:27.408Z,1006.21
2022-09-22T04:42:27.368Z,1006.21
2022-09-22T04:43:27.368Z,1006.24
2022-09-22T04:44:27.351Z,1006.18
2022-09-22T04:45:27.339Z,1006.21
2022-09-22T04:46:27.435Z,1006.22
2022-09-22T04:47:27.346Z,1006.19
2022-09-22T04:48:27.311Z,1006.26
2022-09-22T04:49:27.302Z,1006.17
2022-09-22T04:50:27.291Z,1006.20
2022-09-22T04:51:27.279Z,1006.16
2022-09-22T04:52:27.270Z,1006.16
2022-09-22T04:53:27.283Z,1006.19
2022-09-22T04:54:27.239Z,1006.19
2022-09-22T04:55:27.239Z,1006.19
2022-09-22T04:56:27.238Z,1006.20
2022-09-22T04:57:27.217Z,1006.20
2022-09-22T04:58:27.198Z,1006.24
2022-09-22T04:59:27.219Z,1006.20
2022-09-22T05:00:27.177Z,1006.21
2022-09-22T05:01:27.206Z,1006.23
2022-09-22T05:02:27.169Z,1006.26
2022-09-22T05:03:27.220Z,1006.20
2022-09-22T05:04:27.157Z,1006.26
2022-09-22T05:05:27.127Z,1006.23
2022-09-22T05:06:27.114Z,1006.19
2022-09-22T05:07:27.127Z,1006.25
2022-09-22T05:08:27.097Z,1006.21
2022-09-22T05:09:27.088Z,1006.22
2022-09-22T05:10:27.095Z,1006.25
2022-09-22T05:11:27.057Z,1006.25
2022-09-22T05:12:27.047Z,1006.25
2022-09-22T05:13:27.050Z,1006.25
2022-09-22T05:14:27.026Z,1006.25
2022-09-22T05:15:27.017Z,1006.27
2022-09-22T05:16:27.062Z,1006.31
2022-09-22T05:17:26.987Z,1006.29
2022-09-22T05:18:26.977Z,1006.31
2022-09-22T05:19:26.976Z,1006.26
2022-09-22T05:20:26.956Z,1006.29
2022-09-22T05:21:26.947Z,1006.29
2022-09-22T05:22:26.959Z,1006.33
2022-09-22T05:23:26.928Z,1006.22
2022-09-22T05:24:26.908Z,1006.36
2022-09-22T05:25:26.896Z,1006.36
2022-09-22T05:26:26.886Z,1006.33
2022-09-22T05:27:26.875Z,1006.38
2022-09-22T05:28:26.876Z,1006.33
2022-09-22T05:29:27.905Z,1006.35
2022-09-22T05:30:26.848Z,1006.39
2022-09-22T05:31:26.834Z,1006.41
2022-09-22T05:32:26.815Z,1006.39
2022-09-22T05:33:26.826Z,1006.52
2022-09-22T05:34:26.795Z,1006.43
2022-09-22T05:35:26.787Z,1006.43
2022-09-22T05:36:26.766Z,1006.43
2022-09-22T05:37:26.765Z,1006.42
2022-09-22T05:38:26.747Z,1006.46
2022-09-22T05:39:27.063Z,1006.42
2022-09-22T05:40:26.788Z,1006.48
2022-09-22T05:41:26.719Z,1006.43
2022-09-22T05:42:26.695Z,1006.41
2022-09-22T05:43:26.694Z,1006.44
2022-09-22T05:44:26.673Z,1006.46
2022-09-22T05:45:26.723Z,1006.45
2022-09-22T05:46:26.647Z,1006.43
2022-09-22T05:47:26.646Z,1006.47
2022-09-22T05:48:31.010Z,1006.49
2022-09-22T05:49:26.615Z,1006.43
2022-09-22T05:50:26.624Z,1006.43
2022-09-22T05:51:26.594Z,1006.42
2022-09-22T05:52:26.589Z,1006.47
2022-09-22T05:53:26.577Z,1006.45
2022-09-22T05:54:26.554Z,1006.43
2022-09-22T05:55:26.544Z,1006.42
2022-09-22T05:56:26.570Z,1006.45
2022-09-22T05:57:26.522Z,1006.43
2022-09-22T05:58:26.514Z,1006.45
2022-09-22T05:59:26.508Z,1006.44
2022-09-22T06:00:26.484Z,1006.51
2022-09-22T06:01:26.588Z,1006.41
2022-09-22T06:02:26.868Z,1006.39
2022-09-22T06:03:26.455Z,1006.42
2022-09-22T06:04:26.434Z,1006.43
2022-09-22T06:05:26.426Z,1006.43
2022-09-22T06:06:26.415Z,1006.42
2022-09-22T06:07:26.433Z,1006.42
2022-09-22T06:08:26.395Z,1006.44
2022-09-22T06:09:26.383Z,1006.48
2022-09-22T06:10:26.415Z,1006.41
2022-09-22T06:11:26.366Z,1006.45
2022-09-22T06:12:26.345Z,1006.42
2022-09-22T06:13:26.362Z,1006.41
2022-09-22T06:14:26.323Z,1006.42
2022-09-22T06:15:26.313Z,1006.40
2022-09-22T06:16:26.304Z,1006.41
2022-09-22T06:17:26.291Z,1006.52
2022-09-22T06:18:26.324Z,1006.42
2022-09-22T06:19:26.262Z,1006.46
2022-09-22T06:20:26.350Z,1006.44
2022-09-22T06:21:26.245Z,1006.37
2022-09-22T06:22:26.232Z,1006.47
2022-09-22T06:23:26.224Z,1006.53
2022-09-22T06:24:26.222Z,1006.48
2022-09-22T06:25:26.205Z,1006.51
2022-09-22T06:26:26.182Z,1006.56
2022-09-22T06:27:26.182Z,1006.50
2022-09-22T06:28:26.165Z,1006.42
2022-09-22T06:29:26.172Z,1006.45
2022-09-22T06:30:26.162Z,1006.46
2022-09-22T06:31:26.186Z,1006.44
2022-09-22T06:32:26.122Z,1006.45
2022-09-22T06:33:26.111Z,1006.49
2022-09-22T06:34:26.094Z,1006.46
2022-09-22T06:35:26.114Z,1006.46
2022-09-22T06:36:26.063Z,1006.44
2022-09-22T06:37:26.073Z,1006.46
2022-09-22T06:38:26.047Z,1006.45
2022-09-22T06:39:26.042Z,1006.47
2022-09-22T06:40:26.153Z,1006.45
2022-09-22T06:41:26.036Z,1006.38
2022-09-22T06:42:26.004Z,1006.38
2022-09-22T06:43:25.992Z,1006.44
2022-09-22T06:44:25.996Z,1006.43
2022-09-22T06:45:26.076Z,1006.43
2022-09-22T06:46:25.953Z,1006.38
2022-09-22T06:47:25.961Z,1006.39
2022-09-22T06:48:25.933Z,1006.40
2022-09-22T06:49:25.923Z,1006.39
2022-09-22T06:50:28.024Z,1006.38
2022-09-22T06:51:25.902Z,1006.31
2022-09-22T06:52:25.913Z,1006.38
2022-09-22T06:53:27.315Z,1006.47
2022-09-22T06:54:25.911Z,1006.39
2022-09-22T06:55:25.854Z,1006.40
2022-09-22T06:56:25.857Z,1006.39
2022-09-22T06:57:25.833Z,1006.39
2022-09-22T06:58:25.837Z,1006.39
2022-09-22T06:59:25.824Z,1006.40
2022-09-22T07:00:25.793Z,1006.33
2022-09-22T07:01:25.879Z,1006.37
2022-09-22T07:02:25.809Z,1006.35
2022-09-22T07:03:25.785Z,1006.37
2022-09-22T07:04:25.745Z,1006.36
2022-09-22T07:05:25.743Z,1006.31
2022-09-22T07:06:25.724Z,1006.38
2022-09-22T07:07:25.714Z,1006.38
2022-09-22T07:08:25.695Z,1006.39
2022-09-22T07:09:25.718Z,1006.33
2022-09-22T07:10:25.676Z,1006.35
2022-09-22T07:11:25.665Z,1006.33
2022-09-22T07:12:25.659Z,1006.30
2022-09-22T07:13:25.651Z,1006.35
2022-09-22T07:14:25.648Z,1006.32
2022-09-22T07:15:25.641Z,1006.26
2022-09-22T07:16:25.717Z,1006.30
2022-09-22T07:17:25.597Z,1006.30
2022-09-22T07:18:25.657Z,1006.32
2022-09-22T07:19:25.577Z,1006.33
2022-09-22T07:20:25.587Z,1006.22
2022-09-22T07:21:25.557Z,1006.23
2022-09-22T07:22:25.546Z,1006.24
2022-09-22T07:23:25.546Z,1006.23
2022-09-22T07:24:25.529Z,1006.30
2022-09-22T07:25:25.510Z,1006.28
2022-09-22T07:26:25.520Z,1006.29
2022-09-22T07:27:25.480Z,1006.25
2022-09-22T07:28:25.479Z,1006.27
2022-09-22T07:29:25.468Z,1006.22
2022-09-22T07:30:25.457Z,1006.23
2022-09-22T07:31:28.794Z,1006.18
2022-09-22T07:32:25.429Z,1006.26
2022-09-22T07:33:25.427Z,1006.19
2022-09-22T07:34:25.410Z,1006.19
2022-09-22T07:35:25.401Z,1006.25
2022-09-22T07:36:25.388Z,1006.28
2022-09-22T07:37:25.400Z,1006.20
2022-09-22T07:38:25.360Z,1006.19
2022-09-22T07:39:25.360Z,1006.21
2022-09-22T07:40:25.386Z,1006.23
2022-09-22T07:41:25.332Z,1006.22
2022-09-22T07:42:25.390Z,1006.23
2022-09-22T07:43:32.353Z,1006.22
2022-09-22T07:44:25.297Z,1006.26
2022-09-22T07:45:25.276Z,1006.28
2022-09-22T07:46:25.321Z,1006.27
2022-09-22T07:47:25.264Z,1006.30
2022-09-22T07:48:25.274Z,1006.29
2022-09-22T07:49:25.234Z,1006.25
2022-09-22T07:50:25.239Z,1006.30
2022-09-22T07:51:25.215Z,1006.30
2022-09-22T07:52:25.204Z,1006.30
2022-09-22T07:53:25.217Z,1006.24
2022-09-22T07:54:25.184Z,1006.27
2022-09-22T07:55:25.291Z,1006.29
2022-09-22T07:56:25.156Z,1006.25
2022-09-22T07:57:25.147Z,1006.30
2022-09-22T07:58:25.143Z,1006.29
2022-09-22T07:59:25.146Z,1006.31
2022-09-22T08:00:25.180Z,1006.23
2022-09-22T08:01:25.097Z,1006.24
2022-09-22T08:02:25.196Z,1006.23
2022-09-22T08:03:25.077Z,1006.29
2022-09-22T08:04:25.068Z,1006.30
2022-09-22T08:05:25.068Z,1006.30
2022-09-22T08:06:25.047Z,1006.28
2022-09-22T08:07:25.037Z,1006.26
2022-09-22T08:08:25.028Z,1006.22
2022-09-22T08:09:25.009Z,1006.34
2022-09-22T08:10:25.028Z,1006.37
2022-09-22T08:11:24.990Z,1006.30
2022-09-22T08:12:24.979Z,1006.36
2022-09-22T08:13:24.968Z,1006.33
2022-09-22T08:14:24.968Z,1006.32
2022-09-22T08:15:27.385Z,1006.36
2022-09-22T08:16:24.988Z,1006.30
2022-09-22T08:17:24.919Z,1006.32
2022-09-22T08:18:24.911Z,1006.32
2022-09-22T08:19:24.902Z,1006.36
2022-09-22T08:20:24.889Z,1006.27
2022-09-22T08:21:24.871Z,1006.32
2022-09-22T08:22:24.913Z,1006.37
2022-09-22T08:23:24.849Z,1006.34
2022-09-22T08:24:24.841Z,1006.31
2022-09-22T08:25:24.829Z,1006.35
2022-09-22T08:26:24.853Z,1006.32
2022-09-22T08:27:24.812Z,1006.32
2022-09-22T08:28:24.824Z,1006.34
2022-09-22T08:29:24.838Z,1006.32
2022-09-22T08:30:24.773Z,1006.25
2022-09-22T08:31:24.851Z,1006.35
2022-09-22T08:32:24.753Z,1006.30
2022-09-22T08:33:24.744Z,1006.31
2022-09-22T08:34:24.744Z,1006.40
2022-09-22T08:35:24.714Z,1006.37
2022-09-22T08:36:24.705Z,1006.30
2022-09-22T08:37:24.694Z,1006.34
2022-09-22T08:38:24.685Z,1006.31
2022-09-22T08:39:24.686Z,1006.26
2022-09-22T08:40:24.724Z,1006.27
2022-09-22T08:41:24.653Z,1006.34
2022-09-22T08:42:24.644Z,1006.29
2022-09-22T08:43:24.640Z,1006.27
2022-09-22T08:44:24.618Z,1006.33
2022-09-22T08:45:26.966Z,1006.32
2022-09-22T08:46:24.643Z,1006.30
2022-09-22T08:47:24.578Z,1006.34
2022-09-22T08:48:24.577Z,1006.34
2022-09-22T08:49:24.560Z,1006.31
2022-09-22T08:50:24.578Z,1006.29
2022-09-22T08:51:24.630Z,1006.35
2022-09-22T08:52:24.528Z,1006.39
2022-09-22T08:53:24.509Z,1006.36
2022-09-22T08:54:24.508Z,1006.35
2022-09-22T08:55:24.490Z,1006.37
2022-09-22T08:56:24.549Z,1006.37
2022-09-22T08:57:24.470Z,1006.37
2022-09-22T08:58:24.459Z,1006.39
2022-09-22T08:59:24.491Z,1006.38
2022-09-22T09:00:24.509Z,1006.36
2022-09-22T09:01:24.475Z,1006.37
2022-09-22T09:02:24.511Z,1006.37
2022-09-22T09:03:24.401Z,1006.33
2022-09-22T09:04:24.410Z,1006.36
2022-09-22T09:05:24.381Z,1006.34
2022-09-22T09:06:24.373Z,1006.38
2022-09-22T09:07:24.363Z,1006.34
2022-09-22T09:08:24.372Z,1006.38
2022-09-22T09:09:24.334Z,1006.38
2022-09-22T09:10:24.370Z,1006.39
2022-09-22T09:12:24.304Z,1006.39
2022-09-22T09:13:24.284Z,1006.35
2022-09-22T09:14:24.294Z,1006.27
2022-09-22T09:15:24.266Z,1006.36
2022-09-22T09:16:24.288Z,1006.28
2022-09-22T09:17:24.243Z,1006.27
2022-09-22T09:18:24.245Z,1006.29
2022-09-22T09:19:24.244Z,1006.12
2022-09-22T09:20:24.296Z,1006.09
2022-09-22T09:21:24.198Z,1006.07
2022-09-22T09:22:24.188Z,1006.08
2022-09-22T09:23:24.695Z,1006.07
2022-09-22T09:25:27.319Z,1006.09
2022-09-22T09:26:24.169Z,1006.07
2022-09-22T09:27:24.128Z,1006.04
2022-09-22T09:28:27.750Z,1006.08
2022-09-22T09:29:24.194Z,1006.11
2022-09-22T09:30:24.133Z,1006.08
2022-09-22T09:31:24.136Z,1006.07
2022-09-22T09:32:24.079Z,1006.08
2022-09-22T09:33:24.059Z,1006.05
2022-09-22T09:34:24.054Z,1006.08
2022-09-22T09:35:24.145Z,1006.10
2022-09-22T09:36:24.049Z,1006.11
2022-09-22T09:37:24.017Z,1006.05
2022-09-22T09:38:24.011Z,1006.08
2022-09-22T09:39:23.991Z,1006.09
2022-09-22T09:40:24.107Z,1006.04
2022-09-22T09:41:23.979Z,1006.09
2022-09-22T09:42:24.039Z,1006.08
2022-09-22T09:43:23.952Z,1006.06
2022-09-22T09:44:23.941Z,1006.12
2022-09-22T09:45:23.932Z,1006.09
2022-09-22T09:46:23.966Z,1006.07
2022-09-22T09:47:23.901Z,1006.07
2022-09-22T09:48:23.930Z,1006.03
2022-09-22T09:49:23.880Z,1006.08
2022-09-22T09:50:23.871Z,1006.01
2022-09-22T09:51:23.859Z,1005.99
2022-09-22T09:52:23.851Z,1006.03
2022-09-22T09:53:23.832Z,1005.96
2022-09-22T09:54:23.843Z,1006.01
2022-09-22T09:55:26.643Z,1005.97
2022-09-22T09:56:23.802Z,1006.03
2022-09-22T09:57:28.011Z,1006.03
2022-09-22T09:58:23.772Z,1006.04
2022-09-22T09:59:23.783Z,1006.02
2022-09-22T10:00:23.754Z,1006.07
2022-09-22T10:01:23.754Z,1006.06
2022-09-22T10:02:23.732Z,1006.04
2022-09-22T10:03:23.752Z,1006.03
2022-09-22T10:04:23.702Z,1005.93
2022-09-22T10:05:23.712Z,1005.93
2022-09-22T10:06:23.681Z,1005.97
2022-09-22T10:07:23.721Z,1005.97
2022-09-22T10:08:23.678Z,1005.96
2022-09-22T10:09:23.654Z,1005.97
2022-09-22T10:10:23.655Z,1005.92
2022-09-22T10:11:23.628Z,1005.97
2022-09-22T10:12:23.614Z,1005.92
2022-09-22T10:13:23.603Z,1005.93
2022-09-22T10:14:23.585Z,1005.94
2022-09-22T10:15:23.581Z,1005.92
2022-09-22T10:16:23.624Z,1005.93
2022-09-22T10:17:23.555Z,1005.89
2022-09-22T10:18:23.549Z,1005.91
2022-09-22T10:19:23.534Z,1005.81
2022-09-22T10:20:23.515Z,1005.84
2022-09-22T10:21:23.515Z,1005.84
2022-09-22T10:22:23.515Z,1005.87
2022-09-22T10:23:23.494Z,1005.83
2022-09-22T10:24:23.475Z,1005.85
2022-09-22T10:25:23.466Z,1005.86
2022-09-22T10:26:23.454Z,1005.85
2022-09-22T10:27:23.495Z,1005.83
2022-09-22T10:28:23.426Z,1005.77
2022-09-22T10:29:23.426Z,1005.77
2022-09-22T10:30:23.408Z,1005.76
2022-09-22T10:31:23.444Z,1005.71
2022-09-22T10:32:23.386Z,1005.77
2022-09-22T10:33:23.396Z,1005.72
2022-09-22T10:34:23.368Z,1005.70
2022-09-22T10:35:23.358Z,1005.73
2022-09-22T10:36:23.345Z,1005.73
2022-09-22T10:37:23.326Z,1005.71
2022-09-22T10:38:23.357Z,1005.66
2022-09-22T10:39:23.318Z,1005.68
2022-09-22T10:40:23.346Z,1005.68
2022-09-22T10:41:23.286Z,1005.69
2022-09-22T10:42:23.276Z,1005.70
2022-09-22T10:43:23.266Z,1005.67
2022-09-22T10:44:40.115Z,1005.62
2022-09-22T10:45:24.247Z,1005.60
2022-09-22T10:46:23.267Z,1005.62
2022-09-22T10:47:26.960Z,1005.59
2022-09-22T10:48:23.202Z,1005.55
2022-09-22T10:49:23.196Z,1005.52
2022-09-22T10:50:23.198Z,1005.53
2022-09-22T10:51:23.169Z,1005.54
2022-09-22T10:52:23.156Z,1005.52
2022-09-22T10:53:23.148Z,1005.47
2022-09-22T10:54:23.130Z,1005.50
2022-09-22T10:55:23.127Z,1005.49
2022-09-22T10:56:23.128Z,1005.45
2022-09-22T10:57:23.099Z,1005.49
2022-09-22T10:58:23.086Z,1005.43
2022-09-22T10:59:23.070Z,1005.47
2022-09-22T11:00:23.060Z,1005.45
2022-09-22T11:01:23.064Z,1005.47
2022-09-22T11:02:23.059Z,1005.46
2022-09-22T11:03:23.029Z,1005.41
2022-09-22T11:04:23.045Z,1005.40
2022-09-22T11:05:23.009Z,1005.39
2022-09-22T11:06:22.992Z,1005.37
2022-09-22T11:07:22.980Z,1005.39
2022-09-22T11:08:22.991Z,1005.40
2022-09-22T11:09:22.960Z,1005.37
2022-09-22T11:10:22.943Z,1005.39
2022-09-22T11:11:22.931Z,1005.40
2022-09-22T11:12:22.920Z,1005.42
2022-09-22T11:13:22.912Z,1005.32
2022-09-22T11:14:22.919Z,1005.28
2022-09-22T11:15:22.929Z,1005.30
2022-09-22T11:16:22.871Z,1005.30
2022-09-22T11:17:22.861Z,1005.30
2022-09-22T11:18:22.853Z,1005.29
2022-09-22T11:19:22.862Z,1005.22
2022-09-22T11:20:22.832Z,1005.29
2022-09-22T11:21:22.821Z,1005.24
2022-09-22T11:22:22.802Z,1005.23
2022-09-22T11:23:22.793Z,1005.20
2022-09-22T11:24:22.782Z,1005.22
2022-09-22T11:25:22.803Z,1005.15
2022-09-22T11:26:22.762Z,1005.16
2022-09-22T11:27:22.752Z,1005.20
2022-09-22T11:28:22.733Z,1005.19
2022-09-22T11:29:22.733Z,1005.18
2022-09-22T11:30:22.843Z,1005.12
2022-09-22T11:31:22.753Z,1005.12
2022-09-22T11:32:22.693Z,1005.12
2022-09-22T11:33:22.683Z,1005.08
2022-09-22T11:34:22.703Z,1005.07
2022-09-22T11:35:22.663Z,1005.11
2022-09-22T11:36:22.653Z,1005.02
2022-09-22T11:37:22.654Z,1005.07
2022-09-22T11:38:22.624Z,1005.05
2022-09-22T11:39:22.617Z,1005.07
2022-09-22T11:40:22.665Z,1005.08
2022-09-22T11:41:22.594Z,1005.07
2022-09-22T11:42:22.604Z,1005.03
2022-09-22T11:43:22.574Z,1005.01
2022-09-22T11:44:22.565Z,1005.01
2022-09-22T11:45:22.595Z,1005.00
2022-09-22T11:46:22.593Z,1004.99
2022-09-22T11:47:22.545Z,1004.94
2022-09-22T11:48:22.526Z,1004.95
2022-09-22T11:49:22.505Z,1004.91
2022-09-22T11:50:22.496Z,1004.92
2022-09-22T11:51:22.486Z,1004.86
2022-09-22T11:52:22.474Z,1004.84
2022-09-22T11:53:22.485Z,1004.87
2022-09-22T11:54:22.464Z,1004.83
2022-09-22T11:55:22.438Z,1004.81
2022-09-22T11:56:22.425Z,1004.84
2022-09-22T11:57:22.416Z,1004.88
2022-09-22T11:58:22.404Z,1004.81
2022-09-22T11:59:22.415Z,1004.86
2022-09-22T12:00:22.377Z,1004.75
2022-09-22T12:01:22.367Z,1004.79
2022-09-22T12:02:22.418Z,1004.82
2022-09-22T12:03:22.412Z,1004.80
2022-09-22T12:04:22.336Z,1004.72
2022-09-22T12:05:22.345Z,1004.75
2022-09-22T12:06:22.316Z,1004.70
2022-09-22T12:07:22.297Z,1004.68